sensor_id;sensor_type;location;lat;lon;timestamp;temperature;humidity
74940;HTU21D;63505;45.226;37.908;2023-02-12T00:00:40;-2.79;75.82
74940;HTU21D;63505;45.226;37.908;2023-02-12T00:03:06;-2.71;75.83
74940;HTU21D;63505;45.226;37.908;2023-02-12T00:05:36;-2.64;75.77
74940;HTU21D;63505;45.226;37.908;2023-02-12T00:08:02;-2.59;75.75
74940;HTU21D;63505;45.226;37.908;2023-02-12T00:10:28;-2.51;75.71
74940;HTU21D;63505;45.226;37.908;2023-02-12T00:12:54;-2.46;75.64
74940;HTU21D;63505;45.226;37.908;2023-02-12T00:15:20;-2.42;75.66
74940;HTU21D;63505;45.226;37.908;2023-02-12T00:17:46;-2.39;75.63
74940;HTU21D;63505;45.226;37.908;2023-02-12T00:20:12;-2.37;75.66
74940;HTU21D;63505;45.226;37.908;2023-02-12T00:22:38;-2.34;75.70
74940;HTU21D;63505;45.226;37.908;2023-02-12T00:25:04;-2.29;75.74
74940;HTU21D;63505;45.226;37.908;2023-02-12T00:27:33;-2.26;75.71
74940;HTU21D;63505;45.226;37.908;2023-02-12T00:30:00;-2.19;75.76
74940;HTU21D;63505;45.226;37.908;2023-02-12T00:32:25;-2.16;75.79
74940;HTU21D;63505;45.226;37.908;2023-02-12T00:34:51;-2.13;75.84
74940;HTU21D;63505;45.226;37.908;2023-02-12T00:37:17;-2.07;75.83
74940;HTU21D;63505;45.226;37.908;2023-02-12T00:39:43;-2.02;75.81
74940;HTU21D;63505;45.226;37.908;2023-02-12T00:42:10;-1.99;75.83
74940;HTU21D;63505;45.226;37.908;2023-02-12T00:44:36;-1.95;75.83
74940;HTU21D;63505;45.226;37.908;2023-02-12T00:47:02;-1.91;75.79
74940;HTU21D;63505;45.226;37.908;2023-02-12T00:49:29;-1.89;75.75
74940;HTU21D;63505;45.226;37.908;2023-02-12T00:52:02;-1.79;75.64
74940;HTU21D;63505;45.226;37.908;2023-02-12T00:54:29;-1.72;75.49
74940;HTU21D;63505;45.226;37.908;2023-02-12T00:56:55;-1.65;75.38
74940;HTU21D;63505;45.226;37.908;2023-02-12T00:59:25;-1.61;75.30
74940;HTU21D;63505;45.226;37.908;2023-02-12T01:01:53;-1.58;75.29
74940;HTU21D;63505;45.226;37.908;2023-02-12T01:04:19;-1.55;75.21
74940;HTU21D;63505;45.226;37.908;2023-02-12T01:06:46;-1.50;75.19
74940;HTU21D;63505;45.226;37.908;2023-02-12T01:09:13;-1.48;75.14
74940;HTU21D;63505;45.226;37.908;2023-02-12T01:11:39;-1.45;75.06
74940;HTU21D;63505;45.226;37.908;2023-02-12T01:14:06;-1.42;75.01
74940;HTU21D;63505;45.226;37.908;2023-02-12T01:16:32;-1.38;74.95
74940;HTU21D;63505;45.226;37.908;2023-02-12T01:19:01;-1.32;74.85
74940;HTU21D;63505;45.226;37.908;2023-02-12T01:21:30;-1.27;74.76
74940;HTU21D;63505;45.226;37.908;2023-02-12T01:23:57;-1.25;74.68
74940;HTU21D;63505;45.226;37.908;2023-02-12T01:26:23;-1.20;74.60
74940;HTU21D;63505;45.226;37.908;2023-02-12T01:28:51;-1.17;74.57
74940;HTU21D;63505;45.226;37.908;2023-02-12T01:31:20;-1.15;74.52
74940;HTU21D;63505;45.226;37.908;2023-02-12T01:33:48;-1.10;74.48
74940;HTU21D;63505;45.226;37.908;2023-02-12T01:36:13;-1.08;74.41
74940;HTU21D;63505;45.226;37.908;2023-02-12T01:38:40;-1.05;74.35
74940;HTU21D;63505;45.226;37.908;2023-02-12T01:41:10;-1.06;74.35
74940;HTU21D;63505;45.226;37.908;2023-02-12T01:43:37;-1.10;74.43
74940;HTU21D;63505;45.226;37.908;2023-02-12T01:46:04;-1.13;74.56
74940;HTU21D;63505;45.226;37.908;2023-02-12T01:48:40;-1.13;74.60
74940;HTU21D;63505;45.226;37.908;2023-02-12T01:51:09;-1.12;74.62
74940;HTU21D;63505;45.226;37.908;2023-02-12T01:53:58;-1.12;74.57
74940;HTU21D;63505;45.226;37.908;2023-02-12T01:56:26;-1.11;74.50
74940;HTU21D;63505;45.226;37.908;2023-02-12T01:58:53;-1.11;74.45
74940;HTU21D;63505;45.226;37.908;2023-02-12T02:01:23;-1.13;74.43
74940;HTU21D;63505;45.226;37.908;2023-02-12T02:03:53;-1.18;74.35
74940;HTU21D;63505;45.226;37.908;2023-02-12T02:06:48;-1.40;74.83
74940;HTU21D;63505;45.226;37.908;2023-02-12T02:09:16;-1.52;75.47
74940;HTU21D;63505;45.226;37.908;2023-02-12T02:11:43;-1.60;75.89
74940;HTU21D;63505;45.226;37.908;2023-02-12T02:14:27;-1.68;76.08
74940;HTU21D;63505;45.226;37.908;2023-02-12T02:18:05;-1.74;76.22
74940;HTU21D;63505;45.226;37.908;2023-02-12T02:23:44;-1.90;76.63
74940;HTU21D;63505;45.226;37.908;2023-02-12T02:26:31;-1.93;76.80
74940;HTU21D;63505;45.226;37.908;2023-02-12T02:29:36;-1.93;76.91
74940;HTU21D;63505;45.226;37.908;2023-02-12T02:32:03;-1.95;77.10
74940;HTU21D;63505;45.226;37.908;2023-02-12T02:37:30;-1.97;77.53
74940;HTU21D;63505;45.226;37.908;2023-02-12T02:40:10;-1.94;77.60
74940;HTU21D;63505;45.226;37.908;2023-02-12T02:42:43;-1.90;77.61
74940;HTU21D;63505;45.226;37.908;2023-02-12T02:45:14;-1.88;77.57
74940;HTU21D;63505;45.226;37.908;2023-02-12T02:47:47;-1.86;77.56
74940;HTU21D;63505;45.226;37.908;2023-02-12T02:50:16;-1.83;77.62
74940;HTU21D;63505;45.226;37.908;2023-02-12T02:52:51;-1.80;77.67
74940;HTU21D;63505;45.226;37.908;2023-02-12T02:55:20;-1.79;77.73
74940;HTU21D;63505;45.226;37.908;2023-02-12T02:57:51;-1.79;77.78
74940;HTU21D;63505;45.226;37.908;2023-02-12T03:03:28;-1.80;77.98
74940;HTU21D;63505;45.226;37.908;2023-02-12T03:06:01;-1.79;78.03
74940;HTU21D;63505;45.226;37.908;2023-02-12T03:08:33;-1.78;78.14
74940;HTU21D;63505;45.226;37.908;2023-02-12T03:11:42;-1.76;78.18
74940;HTU21D;63505;45.226;37.908;2023-02-12T03:14:10;-1.72;78.18
74940;HTU21D;63505;45.226;37.908;2023-02-12T03:16:56;-1.70;78.16
74940;HTU21D;63505;45.226;37.908;2023-02-12T03:19:26;-1.64;78.18
74940;HTU21D;63505;45.226;37.908;2023-02-12T03:21:56;-1.61;78.23
74940;HTU21D;63505;45.226;37.908;2023-02-12T03:24:50;-1.55;78.33
74940;HTU21D;63505;45.226;37.908;2023-02-12T03:27:33;-1.50;78.55
74940;HTU21D;63505;45.226;37.908;2023-02-12T03:30:02;-1.47;78.65
74940;HTU21D;63505;45.226;37.908;2023-02-12T03:32:34;-1.43;78.70
74940;HTU21D;63505;45.226;37.908;2023-02-12T03:37:50;-1.36;78.92
74940;HTU21D;63505;45.226;37.908;2023-02-12T03:40:27;-1.33;79.13
74940;HTU21D;63505;45.226;37.908;2023-02-12T03:45:57;-1.24;79.31
74940;HTU21D;63505;45.226;37.908;2023-02-12T03:53:45;-1.12;79.08
74940;HTU21D;63505;45.226;37.908;2023-02-12T03:56:15;-1.06;78.97
74940;HTU21D;63505;45.226;37.908;2023-02-12T03:58:43;-0.98;78.85
74940;HTU21D;63505;45.226;37.908;2023-02-12T04:01:10;-0.91;78.69
74940;HTU21D;63505;45.226;37.908;2023-02-12T04:03:37;-0.84;78.59
74940;HTU21D;63505;45.226;37.908;2023-02-12T04:06:03;-0.73;78.49
74940;HTU21D;63505;45.226;37.908;2023-02-12T04:08:30;-0.64;78.34
74940;HTU21D;63505;45.226;37.908;2023-02-12T04:14:14;-0.49;78.04
74940;HTU21D;63505;45.226;37.908;2023-02-12T04:16:46;-0.44;77.99
74940;HTU21D;63505;45.226;37.908;2023-02-12T04:19:16;-0.39;77.95
74940;HTU21D;63505;45.226;37.908;2023-02-12T04:30:09;-0.28;77.78
74940;HTU21D;63505;45.226;37.908;2023-02-12T04:33:02;-0.26;77.77
74940;HTU21D;63505;45.226;37.908;2023-02-12T04:38:51;-0.24;77.84
74940;HTU21D;63505;45.226;37.908;2023-02-12T04:41:18;-0.21;77.81
74940;HTU21D;63505;45.226;37.908;2023-02-12T04:43:44;-0.17;77.76
74940;HTU21D;63505;45.226;37.908;2023-02-12T04:46:10;-0.20;77.82
74940;HTU21D;63505;45.226;37.908;2023-02-12T04:48:50;-0.19;77.99
74940;HTU21D;63505;45.226;37.908;2023-02-12T04:51:16;-0.21;78.14
74940;HTU21D;63505;45.226;37.908;2023-02-12T04:53:42;-0.19;78.30
74940;HTU21D;63505;45.226;37.908;2023-02-12T04:56:10;-0.15;78.39
74940;HTU21D;63505;45.226;37.908;2023-02-12T04:58:38;-0.10;78.40
74940;HTU21D;63505;45.226;37.908;2023-02-12T05:01:04;-0.03;78.37
74940;HTU21D;63505;45.226;37.908;2023-02-12T05:03:30;0.21;78.35
74940;HTU21D;63505;45.226;37.908;2023-02-12T05:06:10;0.29;78.08
74940;HTU21D;63505;45.226;37.908;2023-02-12T05:08:35;0.32;78.00
74940;HTU21D;63505;45.226;37.908;2023-02-12T05:11:06;0.34;77.96
74940;HTU21D;63505;45.226;37.908;2023-02-12T05:13:33;0.38;77.92
74940;HTU21D;63505;45.226;37.908;2023-02-12T05:16:05;0.42;77.92
74940;HTU21D;63505;45.226;37.908;2023-02-12T05:18:32;0.47;77.92
74940;HTU21D;63505;45.226;37.908;2023-02-12T05:21:00;0.51;77.91
74940;HTU21D;63505;45.226;37.908;2023-02-12T05:23:32;0.55;77.89
74940;HTU21D;63505;45.226;37.908;2023-02-12T05:25:59;0.61;77.87
74940;HTU21D;63505;45.226;37.908;2023-02-12T05:28:26;0.67;77.85
74940;HTU21D;63505;45.226;37.908;2023-02-12T05:30:52;0.77;77.84
74940;HTU21D;63505;45.226;37.908;2023-02-12T05:33:18;0.87;77.80
74940;HTU21D;63505;45.226;37.908;2023-02-12T05:35:44;0.95;77.74
74940;HTU21D;63505;45.226;37.908;2023-02-12T05:38:10;1.06;77.68
74940;HTU21D;63505;45.226;37.908;2023-02-12T05:40:36;1.14;77.63
74940;HTU21D;63505;45.226;37.908;2023-02-12T05:43:02;1.24;77.61
74940;HTU21D;63505;45.226;37.908;2023-02-12T05:45:28;1.33;77.56
74940;HTU21D;63505;45.226;37.908;2023-02-12T05:47:55;1.40;77.50
74940;HTU21D;63505;45.226;37.908;2023-02-12T05:50:21;1.56;77.76
74940;HTU21D;63505;45.226;37.908;2023-02-12T05:52:59;1.86;77.31
74940;HTU21D;63505;45.226;37.908;2023-02-12T05:55:24;1.95;77.20
74940;HTU21D;63505;45.226;37.908;2023-02-12T05:57:50;1.99;77.05
74940;HTU21D;63505;45.226;37.908;2023-02-12T06:00:17;2.08;77.07
74940;HTU21D;63505;45.226;37.908;2023-02-12T06:02:43;2.11;76.98
74940;HTU21D;63505;45.226;37.908;2023-02-12T06:05:08;2.16;76.99
74940;HTU21D;63505;45.226;37.908;2023-02-12T06:07:34;2.22;76.95
74940;HTU21D;63505;45.226;37.908;2023-02-12T06:10:00;2.26;76.95
74940;HTU21D;63505;45.226;37.908;2023-02-12T06:12:26;2.30;76.95
74940;HTU21D;63505;45.226;37.908;2023-02-12T06:14:52;2.38;76.92
74940;HTU21D;63505;45.226;37.908;2023-02-12T06:17:18;2.45;76.83
74940;HTU21D;63505;45.226;37.908;2023-02-12T06:19:44;2.50;76.72
74940;HTU21D;63505;45.226;37.908;2023-02-12T06:22:09;2.57;76.59
74940;HTU21D;63505;45.226;37.908;2023-02-12T06:24:35;2.60;76.47
74940;HTU21D;63505;45.226;37.908;2023-02-12T06:27:02;2.58;76.37
74940;HTU21D;63505;45.226;37.908;2023-02-12T06:29:28;2.59;76.34
74940;HTU21D;63505;45.226;37.908;2023-02-12T06:31:54;2.62;76.33
74940;HTU21D;63505;45.226;37.908;2023-02-12T06:34:20;2.61;76.26
74940;HTU21D;63505;45.226;37.908;2023-02-12T06:36:46;2.64;76.18
74940;HTU21D;63505;45.226;37.908;2023-02-12T06:39:14;2.65;76.08
74940;HTU21D;63505;45.226;37.908;2023-02-12T06:41:40;2.65;75.98
74940;HTU21D;63505;45.226;37.908;2023-02-12T06:44:07;2.69;75.92
74940;HTU21D;63505;45.226;37.908;2023-02-12T06:46:32;2.73;75.83
74940;HTU21D;63505;45.226;37.908;2023-02-12T06:48:59;2.81;75.73
74940;HTU21D;63505;45.226;37.908;2023-02-12T06:51:26;2.88;75.58
74940;HTU21D;63505;45.226;37.908;2023-02-12T06:53:54;2.95;75.42
74940;HTU21D;63505;45.226;37.908;2023-02-12T06:56:21;3.01;75.37
74940;HTU21D;63505;45.226;37.908;2023-02-12T06:58:52;3.08;75.31
74940;HTU21D;63505;45.226;37.908;2023-02-12T07:01:22;3.15;75.24
74940;HTU21D;63505;45.226;37.908;2023-02-12T07:03:51;3.25;75.12
74940;HTU21D;63505;45.226;37.908;2023-02-12T07:06:17;3.30;74.99
74940;HTU21D;63505;45.226;37.908;2023-02-12T07:08:43;3.30;74.86
74940;HTU21D;63505;45.226;37.908;2023-02-12T07:11:10;3.27;74.82
74940;HTU21D;63505;45.226;37.908;2023-02-12T07:13:36;3.26;74.83
74940;HTU21D;63505;45.226;37.908;2023-02-12T07:16:04;3.26;74.80
74940;HTU21D;63505;45.226;37.908;2023-02-12T07:18:30;3.24;74.73
74940;HTU21D;63505;45.226;37.908;2023-02-12T07:20:56;3.23;74.65
74940;HTU21D;63505;45.226;37.908;2023-02-12T07:23:21;3.23;74.55
74940;HTU21D;63505;45.226;37.908;2023-02-12T07:26:06;3.25;74.44
74940;HTU21D;63505;45.226;37.908;2023-02-12T07:28:33;3.29;74.38
74940;HTU21D;63505;45.226;37.908;2023-02-12T07:31:05;3.36;74.34
74940;HTU21D;63505;45.226;37.908;2023-02-12T07:33:32;3.47;74.28
74940;HTU21D;63505;45.226;37.908;2023-02-12T07:36:06;3.59;74.16
74940;HTU21D;63505;45.226;37.908;2023-02-12T07:38:32;3.73;74.04
74940;HTU21D;63505;45.226;37.908;2023-02-12T07:43:41;4.02;73.52
74940;HTU21D;63505;45.226;37.908;2023-02-12T07:46:22;4.13;73.23
74940;HTU21D;63505;45.226;37.908;2023-02-12T07:48:52;4.24;73.04
74940;HTU21D;63505;45.226;37.908;2023-02-12T07:51:18;4.42;72.72
74940;HTU21D;63505;45.226;37.908;2023-02-12T07:53:44;4.50;72.50
74940;HTU21D;63505;45.226;37.908;2023-02-12T07:56:16;4.54;72.35
74940;HTU21D;63505;45.226;37.908;2023-02-12T07:58:44;4.61;72.16
74940;HTU21D;63505;45.226;37.908;2023-02-12T08:01:21;4.57;71.71
74940;HTU21D;63505;45.226;37.908;2023-02-12T08:03:48;4.53;71.70
74940;HTU21D;63505;45.226;37.908;2023-02-12T08:06:17;4.49;71.64
74940;HTU21D;63505;45.226;37.908;2023-02-12T08:08:44;4.49;71.59
74940;HTU21D;63505;45.226;37.908;2023-02-12T08:11:12;4.44;71.50
74940;HTU21D;63505;45.226;37.908;2023-02-12T08:13:38;4.43;71.36
74940;HTU21D;63505;45.226;37.908;2023-02-12T08:16:13;4.41;71.35
74940;HTU21D;63505;45.226;37.908;2023-02-12T08:18:40;4.41;71.20
74940;HTU21D;63505;45.226;37.908;2023-02-12T08:21:08;4.41;71.04
74940;HTU21D;63505;45.226;37.908;2023-02-12T08:23:35;4.37;70.84
74940;HTU21D;63505;45.226;37.908;2023-02-12T08:26:21;4.36;70.71
74940;HTU21D;63505;45.226;37.908;2023-02-12T08:28:50;4.36;70.68
74940;HTU21D;63505;45.226;37.908;2023-02-12T08:31:24;4.37;70.60
74940;HTU21D;63505;45.226;37.908;2023-02-12T08:33:52;4.41;70.58
74940;HTU21D;63505;45.226;37.908;2023-02-12T08:36:21;4.48;70.47
74940;HTU21D;63505;45.226;37.908;2023-02-12T08:38:47;4.56;70.21
74940;HTU21D;63505;45.226;37.908;2023-02-12T08:43:44;4.71;69.48
74940;HTU21D;63505;45.226;37.908;2023-02-12T08:46:18;4.78;69.23
74940;HTU21D;63505;45.226;37.908;2023-02-12T08:48:44;4.87;69.07
74940;HTU21D;63505;45.226;37.908;2023-02-12T08:51:13;4.92;68.89
74940;HTU21D;63505;45.226;37.908;2023-02-12T08:53:41;4.93;68.74
74940;HTU21D;63505;45.226;37.908;2023-02-12T08:56:09;4.89;68.60
74940;HTU21D;63505;45.226;37.908;2023-02-12T08:58:36;4.82;68.55
74940;HTU21D;63505;45.226;37.908;2023-02-12T09:01:04;4.76;68.70
74940;HTU21D;63505;45.226;37.908;2023-02-12T09:03:30;4.69;68.75
74940;HTU21D;63505;45.226;37.908;2023-02-12T09:05:56;4.65;68.66
74940;HTU21D;63505;45.226;37.908;2023-02-12T09:08:22;4.65;68.58
74940;HTU21D;63505;45.226;37.908;2023-02-12T09:10:48;4.66;68.46
74940;HTU21D;63505;45.226;37.908;2023-02-12T09:13:14;4.67;68.39
74940;HTU21D;63505;45.226;37.908;2023-02-12T09:15:42;4.67;68.36
74940;HTU21D;63505;45.226;37.908;2023-02-12T09:18:09;4.72;68.13
74940;HTU21D;63505;45.226;37.908;2023-02-12T09:20:41;4.79;67.94
74940;HTU21D;63505;45.226;37.908;2023-02-12T09:23:08;4.90;67.75
74940;HTU21D;63505;45.226;37.908;2023-02-12T09:25:37;5.05;67.36
74940;HTU21D;63505;45.226;37.908;2023-02-12T09:28:03;5.26;67.04
74940;HTU21D;63505;45.226;37.908;2023-02-12T09:30:29;5.53;66.53
74940;HTU21D;63505;45.226;37.908;2023-02-12T09:32:55;5.81;65.69
74940;HTU21D;63505;45.226;37.908;2023-02-12T09:35:22;6.01;65.04
74940;HTU21D;63505;45.226;37.908;2023-02-12T09:37:48;6.12;64.28
74940;HTU21D;63505;45.226;37.908;2023-02-12T09:45:26;6.10;63.76
74940;HTU21D;63505;45.226;37.908;2023-02-12T09:50:58;5.98;63.63
74940;HTU21D;63505;45.226;37.908;2023-02-12T09:53:28;5.93;63.78
74940;HTU21D;63505;45.226;37.908;2023-02-12T09:55:55;5.91;63.98
74940;HTU21D;63505;45.226;37.908;2023-02-12T10:00:55;5.89;63.79
74940;HTU21D;63505;45.226;37.908;2023-02-12T10:03:21;5.86;63.89
74940;HTU21D;63505;45.226;37.908;2023-02-12T10:05:50;5.83;63.86
74940;HTU21D;63505;45.226;37.908;2023-02-12T10:26:56;5.02;68.01
74940;HTU21D;63505;45.226;37.908;2023-02-12T10:29:36;4.98;68.24
74940;HTU21D;63505;45.226;37.908;2023-02-12T10:32:09;4.94;68.43
74940;HTU21D;63505;45.226;37.908;2023-02-12T10:34:37;4.89;68.67
74940;HTU21D;63505;45.226;37.908;2023-02-12T10:37:04;4.83;69.02
74940;HTU21D;63505;45.226;37.908;2023-02-12T10:39:36;4.79;69.79
74940;HTU21D;63505;45.226;37.908;2023-02-12T10:42:32;4.75;70.24
74940;HTU21D;63505;45.226;37.908;2023-02-12T10:44:58;4.71;70.48
74940;HTU21D;63505;45.226;37.908;2023-02-12T10:47:24;4.69;70.71
74940;HTU21D;63505;45.226;37.908;2023-02-12T10:49:56;4.67;70.91
74940;HTU21D;63505;45.226;37.908;2023-02-12T10:52:47;4.66;71.14
74940;HTU21D;63505;45.226;37.908;2023-02-12T10:55:25;4.65;71.29
74940;HTU21D;63505;45.226;37.908;2023-02-12T10:57:52;4.62;71.29
74940;HTU21D;63505;45.226;37.908;2023-02-12T11:00:30;4.60;71.29
74940;HTU21D;63505;45.226;37.908;2023-02-12T11:03:04;4.61;71.33
74940;HTU21D;63505;45.226;37.908;2023-02-12T11:05:33;4.63;71.34
74940;HTU21D;63505;45.226;37.908;2023-02-12T11:07:59;4.64;71.28
74940;HTU21D;63505;45.226;37.908;2023-02-12T11:10:31;4.67;71.15
74940;HTU21D;63505;45.226;37.908;2023-02-12T11:12:58;4.71;71.01
74940;HTU21D;63505;45.226;37.908;2023-02-12T11:15:26;4.73;70.87
74940;HTU21D;63505;45.226;37.908;2023-02-12T11:18:03;4.74;70.77
74940;HTU21D;63505;45.226;37.908;2023-02-12T11:20:40;4.75;70.71
74940;HTU21D;63505;45.226;37.908;2023-02-12T11:26:05;4.54;70.88
74940;HTU21D;63505;45.226;37.908;2023-02-12T11:28:34;4.39;71.27
74940;HTU21D;63505;45.226;37.908;2023-02-12T11:31:16;4.24;71.64
74940;HTU21D;63505;45.226;37.908;2023-02-12T11:33:45;4.09;72.07
74940;HTU21D;63505;45.226;37.908;2023-02-12T11:36:16;3.93;72.56
74940;HTU21D;63505;45.226;37.908;2023-02-12T11:38:52;3.78;73.25
74940;HTU21D;63505;45.226;37.908;2023-02-12T11:41:32;3.65;73.97
74940;HTU21D;63505;45.226;37.908;2023-02-12T11:44:37;3.53;74.68
74940;HTU21D;63505;45.226;37.908;2023-02-12T11:47:06;3.41;75.11
74940;HTU21D;63505;45.226;37.908;2023-02-12T11:49:38;3.30;75.47
74940;HTU21D;63505;45.226;37.908;2023-02-12T11:52:05;3.21;75.98
74940;HTU21D;63505;45.226;37.908;2023-02-12T11:54:40;3.12;76.79
74940;HTU21D;63505;45.226;37.908;2023-02-12T11:57:33;3.05;77.45
74940;HTU21D;63505;45.226;37.908;2023-02-12T11:59:56;2.99;78.24
74940;HTU21D;63505;45.226;37.908;2023-02-12T12:02:28;2.94;78.73
74940;HTU21D;63505;45.226;37.908;2023-02-12T12:05:12;2.88;79.14
74940;HTU21D;63505;45.226;37.908;2023-02-12T12:07:44;2.90;79.75
74940;HTU21D;63505;45.226;37.908;2023-02-12T12:10:30;3.02;80.71
74940;HTU21D;63505;45.226;37.908;2023-02-12T12:13:02;3.17;80.95
74940;HTU21D;63505;45.226;37.908;2023-02-12T12:15:32;3.26;80.87
74940;HTU21D;63505;45.226;37.908;2023-02-12T12:18:44;3.33;80.63
74940;HTU21D;63505;45.226;37.908;2023-02-12T12:21:38;3.41;80.61
74940;HTU21D;63505;45.226;37.908;2023-02-12T12:24:12;3.48;80.86
74940;HTU21D;63505;45.226;37.908;2023-02-12T12:26:41;3.56;81.22
74940;HTU21D;63505;45.226;37.908;2023-02-12T12:29:41;3.62;81.24
74940;HTU21D;63505;45.226;37.908;2023-02-12T12:32:13;3.62;81.02
74940;HTU21D;63505;45.226;37.908;2023-02-12T12:34:41;3.57;80.73
74940;HTU21D;63505;45.226;37.908;2023-02-12T13:07:42;3.31;78.88
74940;HTU21D;63505;45.226;37.908;2023-02-12T13:18:27;3.36;79.66
74940;HTU21D;63505;45.226;37.908;2023-02-12T13:24:05;3.52;78.97
74940;HTU21D;63505;45.226;37.908;2023-02-12T13:29:37;3.50;78.69
74940;HTU21D;63505;45.226;37.908;2023-02-12T13:32:11;3.53;78.81
74940;HTU21D;63505;45.226;37.908;2023-02-12T13:34:38;3.58;78.88
74940;HTU21D;63505;45.226;37.908;2023-02-12T13:37:14;3.65;78.94
74940;HTU21D;63505;45.226;37.908;2023-02-12T13:39:44;3.70;78.92
74940;HTU21D;63505;45.226;37.908;2023-02-12T13:47:51;3.74;79.10
74940;HTU21D;63505;45.226;37.908;2023-02-12T13:50:40;3.75;79.04
74940;HTU21D;63505;45.226;37.908;2023-02-12T13:58:49;3.70;78.79
74940;HTU21D;63505;45.226;37.908;2023-02-12T14:01:37;3.64;78.72
74940;HTU21D;63505;45.226;37.908;2023-02-12T14:04:30;3.61;78.65
74940;HTU21D;63505;45.226;37.908;2023-02-12T14:07:08;3.57;78.61
74940;HTU21D;63505;45.226;37.908;2023-02-12T14:14:39;3.44;78.50
74940;HTU21D;63505;45.226;37.908;2023-02-12T14:24:54;3.43;78.31
74940;HTU21D;63505;45.226;37.908;2023-02-12T14:27:33;3.41;78.28
74940;HTU21D;63505;45.226;37.908;2023-02-12T14:30:03;3.39;78.27
74940;HTU21D;63505;45.226;37.908;2023-02-12T14:38:02;3.38;78.19
74940;HTU21D;63505;45.226;37.908;2023-02-12T14:42:59;3.43;78.19
74940;HTU21D;63505;45.226;37.908;2023-02-12T14:45:36;3.46;78.11
74940;HTU21D;63505;45.226;37.908;2023-02-12T14:48:04;3.45;78.05
74940;HTU21D;63505;45.226;37.908;2023-02-12T14:50:37;3.44;78.02
74940;HTU21D;63505;45.226;37.908;2023-02-12T14:53:25;3.36;78.08
74940;HTU21D;63505;45.226;37.908;2023-02-12T14:55:54;3.31;78.18
74940;HTU21D;63505;45.226;37.908;2023-02-12T14:58:22;3.20;78.38
74940;HTU21D;63505;45.226;37.908;2023-02-12T15:00:52;3.14;78.63
74940;HTU21D;63505;45.226;37.908;2023-02-12T15:03:33;3.06;78.95
74940;HTU21D;63505;45.226;37.908;2023-02-12T15:06:12;3.00;79.20
74940;HTU21D;63505;45.226;37.908;2023-02-12T15:08:44;2.91;79.46
74940;HTU21D;63505;45.226;37.908;2023-02-12T15:14:02;2.69;79.91
74940;HTU21D;63505;45.226;37.908;2023-02-12T15:17:16;2.56;80.27
74940;HTU21D;63505;45.226;37.908;2023-02-12T15:22:23;2.35;80.91
74940;HTU21D;63505;45.226;37.908;2023-02-12T15:24:52;2.27;81.10
74940;HTU21D;63505;45.226;37.908;2023-02-12T15:27:18;2.16;81.36
74940;HTU21D;63505;45.226;37.908;2023-02-12T15:29:51;2.11;81.49
74940;HTU21D;63505;45.226;37.908;2023-02-12T15:32:22;2.03;81.56
74940;HTU21D;63505;45.226;37.908;2023-02-12T15:34:50;1.96;81.71
74940;HTU21D;63505;45.226;37.908;2023-02-12T15:37:26;1.88;81.93
74940;HTU21D;63505;45.226;37.908;2023-02-12T15:39:56;1.84;82.09
74940;HTU21D;63505;45.226;37.908;2023-02-12T15:42:24;1.81;82.17
74940;HTU21D;63505;45.226;37.908;2023-02-12T15:44:51;1.79;82.20
74940;HTU21D;63505;45.226;37.908;2023-02-12T15:47:17;1.73;82.28
74940;HTU21D;63505;45.226;37.908;2023-02-12T15:49:49;1.69;82.35
74940;HTU21D;63505;45.226;37.908;2023-02-12T15:52:22;1.68;82.36
74940;HTU21D;63505;45.226;37.908;2023-02-12T15:54:50;1.64;82.38
74940;HTU21D;63505;45.226;37.908;2023-02-12T15:57:22;1.58;82.42
74940;HTU21D;63505;45.226;37.908;2023-02-12T15:59:54;1.57;82.52
74940;HTU21D;63505;45.226;37.908;2023-02-12T16:02:25;1.55;82.55
74940;HTU21D;63505;45.226;37.908;2023-02-12T16:04:54;1.52;82.65
74940;HTU21D;63505;45.226;37.908;2023-02-12T16:07:22;1.51;82.75
74940;HTU21D;63505;45.226;37.908;2023-02-12T16:09:50;1.50;82.80
74940;HTU21D;63505;45.226;37.908;2023-02-12T16:12:20;1.47;82.81
74940;HTU21D;63505;45.226;37.908;2023-02-12T16:14:51;1.46;82.86
74940;HTU21D;63505;45.226;37.908;2023-02-12T16:20:04;1.41;83.00
74940;HTU21D;63505;45.226;37.908;2023-02-12T16:22:36;1.42;83.07
74940;HTU21D;63505;45.226;37.908;2023-02-12T16:25:04;1.41;83.17
74940;HTU21D;63505;45.226;37.908;2023-02-12T16:27:35;1.40;83.27
74940;HTU21D;63505;45.226;37.908;2023-02-12T16:30:06;1.40;83.39
74940;HTU21D;63505;45.226;37.908;2023-02-12T16:32:34;1.42;83.46
74940;HTU21D;63505;45.226;37.908;2023-02-12T16:42:33;1.45;83.48
74940;HTU21D;63505;45.226;37.908;2023-02-12T16:44:59;1.46;83.49
74940;HTU21D;63505;45.226;37.908;2023-02-12T16:47:26;1.48;83.49
74940;HTU21D;63505;45.226;37.908;2023-02-12T16:49:58;1.50;83.49
74940;HTU21D;63505;45.226;37.908;2023-02-12T16:52:39;1.50;83.42
74940;HTU21D;63505;45.226;37.908;2023-02-12T16:55:12;1.50;83.43
74940;HTU21D;63505;45.226;37.908;2023-02-12T16:57:40;1.49;83.44
74940;HTU21D;63505;45.226;37.908;2023-02-12T17:00:07;1.49;83.45
74940;HTU21D;63505;45.226;37.908;2023-02-12T17:02:34;1.50;83.45
74940;HTU21D;63505;45.226;37.908;2023-02-12T17:05:02;1.50;83.45
74940;HTU21D;63505;45.226;37.908;2023-02-12T17:07:30;1.50;83.48
74940;HTU21D;63505;45.226;37.908;2023-02-12T17:09:56;1.51;83.52
74940;HTU21D;63505;45.226;37.908;2023-02-12T17:12:22;1.50;83.54
74940;HTU21D;63505;45.226;37.908;2023-02-12T17:14:48;1.49;83.56
74940;HTU21D;63505;45.226;37.908;2023-02-12T17:17:14;1.50;83.56
74940;HTU21D;63505;45.226;37.908;2023-02-12T17:19:40;1.51;83.56
74940;HTU21D;63505;45.226;37.908;2023-02-12T17:22:16;1.52;83.52
74940;HTU21D;63505;45.226;37.908;2023-02-12T17:24:43;1.53;83.50
74940;HTU21D;63505;45.226;37.908;2023-02-12T17:27:13;1.52;83.47
74940;HTU21D;63505;45.226;37.908;2023-02-12T17:29:39;1.52;83.47
74940;HTU21D;63505;45.226;37.908;2023-02-12T17:32:05;1.50;83.48
74940;HTU21D;63505;45.226;37.908;2023-02-12T17:34:34;1.50;83.48
74940;HTU21D;63505;45.226;37.908;2023-02-12T17:37:05;1.49;83.52
74940;HTU21D;63505;45.226;37.908;2023-02-12T17:39:31;1.50;83.52
74940;HTU21D;63505;45.226;37.908;2023-02-12T17:41:57;1.51;83.53
74940;HTU21D;63505;45.226;37.908;2023-02-12T17:44:25;1.50;83.55
74940;HTU21D;63505;45.226;37.908;2023-02-12T17:46:52;1.50;83.54
74940;HTU21D;63505;45.226;37.908;2023-02-12T17:49:18;1.50;83.56
74940;HTU21D;63505;45.226;37.908;2023-02-12T17:51:44;1.50;83.54
74940;HTU21D;63505;45.226;37.908;2023-02-12T17:54:10;1.48;83.60
74940;HTU21D;63505;45.226;37.908;2023-02-12T17:56:37;1.49;83.64
74940;HTU21D;63505;45.226;37.908;2023-02-12T17:59:03;1.48;83.68
74940;HTU21D;63505;45.226;37.908;2023-02-12T18:01:28;1.49;83.66
74940;HTU21D;63505;45.226;37.908;2023-02-12T18:03:57;1.48;83.65
74940;HTU21D;63505;45.226;37.908;2023-02-12T18:06:28;1.48;83.71
74940;HTU21D;63505;45.226;37.908;2023-02-12T18:08:58;1.49;83.72
74940;HTU21D;63505;45.226;37.908;2023-02-12T18:11:26;1.49;83.71
74940;HTU21D;63505;45.226;37.908;2023-02-12T18:13:54;1.49;83.69
74940;HTU21D;63505;45.226;37.908;2023-02-12T18:16:24;1.48;83.69
74940;HTU21D;63505;45.226;37.908;2023-02-12T18:18:50;1.48;83.66